sensor_id;sensor_type;location;lat;lon;timestamp;temperature;humidity
70368;DHT22;57789;53.868;10.728;2023-03-04T00:00:22;5.40;99.90
70368;DHT22;57789;53.868;10.728;2023-03-04T00:02:48;5.40;99.90
70368;DHT22;57789;53.868;10.728;2023-03-04T00:05:13;5.40;99.90
70368;DHT22;57789;53.868;10.728;2023-03-04T00:07:39;5.40;99.90
70368;DHT22;57789;53.868;10.728;2023-03-04T00:10:05;5.50;99.90
70368;DHT22;57789;53.868;10.728;2023-03-04T00:12:31;5.50;99.90
70368;DHT22;57789;53.868;10.728;2023-03-04T00:14:56;5.50;99.90
70368;DHT22;57789;53.868;10.728;2023-03-04T00:17:22;5.50;99.90
70368;DHT22;57789;53.868;10.728;2023-03-04T00:19:48;5.50;99.90
70368;DHT22;57789;53.868;10.728;2023-03-04T00:22:14;5.50;99.90
70368;DHT22;57789;53.868;10.728;2023-03-04T00:24:39;5.50;99.90
70368;DHT22;57789;53.868;10.728;2023-03-04T00:27:05;5.60;99.90
70368;DHT22;57789;53.868;10.728;2023-03-04T00:29:31;5.60;99.90
70368;DHT22;57789;53.868;10.728;2023-03-04T00:31:56;5.60;99.90
70368;DHT22;57789;53.868;10.728;2023-03-04T00:34:22;5.60;99.90
70368;DHT22;57789;53.868;10.728;2023-03-04T00:36:48;5.60;99.90
70368;DHT22;57789;53.868;10.728;2023-03-04T00:39:14;5.60;99.90
70368;DHT22;57789;53.868;10.728;2023-03-04T00:41:40;5.60;99.90
70368;DHT22;57789;53.868;10.728;2023-03-04T00:44:05;5.60;99.90
70368;DHT22;57789;53.868;10.728;2023-03-04T00:46:31;5.70;99.90
70368;DHT22;57789;53.868;10.728;2023-03-04T00:48:57;5.70;99.90
70368;DHT22;57789;53.868;10.728;2023-03-04T00:51:22;5.60;99.90
70368;DHT22;57789;53.868;10.728;2023-03-04T00:53:48;5.70;99.90
70368;DHT22;57789;53.868;10.728;2023-03-04T00:56:13;5.70;99.90
70368;DHT22;57789;53.868;10.728;2023-03-04T00:58:39;5.70;99.90
70368;DHT22;57789;53.868;10.728;2023-03-04T01:01:06;5.70;99.90
70368;DHT22;57789;53.868;10.728;2023-03-04T01:03:32;5.70;99.90
70368;DHT22;57789;53.868;10.728;2023-03-04T01:05:58;5.70;99.90
70368;DHT22;57789;53.868;10.728;2023-03-04T01:08:24;5.70;99.90
70368;DHT22;57789;53.868;10.728;2023-03-04T01:10:51;5.70;99.90
70368;DHT22;57789;53.868;10.728;2023-03-04T01:13:17;5.80;99.90
70368;DHT22;57789;53.868;10.728;2023-03-04T01:15:43;5.80;99.90
70368;DHT22;57789;53.868;10.728;2023-03-04T01:18:09;5.70;99.90
70368;DHT22;57789;53.868;10.728;2023-03-04T01:20:35;5.80;99.90
70368;DHT22;57789;53.868;10.728;2023-03-04T01:23:00;5.80;99.90
70368;DHT22;57789;53.868;10.728;2023-03-04T01:25:26;5.80;99.90
70368;DHT22;57789;53.868;10.728;2023-03-04T01:27:51;5.80;99.90
70368;DHT22;57789;53.868;10.728;2023-03-04T01:30:17;5.80;99.90
70368;DHT22;57789;53.868;10.728;2023-03-04T01:32:43;5.80;99.90
70368;DHT22;57789;53.868;10.728;2023-03-04T01:35:09;5.80;99.90
70368;DHT22;57789;53.868;10.728;2023-03-04T01:37:35;5.90;99.90
70368;DHT22;57789;53.868;10.728;2023-03-04T01:40:00;5.90;99.90
70368;DHT22;57789;53.868;10.728;2023-03-04T01:42:29;5.90;99.90
70368;DHT22;57789;53.868;10.728;2023-03-04T01:44:56;5.90;99.90
70368;DHT22;57789;53.868;10.728;2023-03-04T01:47:23;5.90;99.90
70368;DHT22;57789;53.868;10.728;2023-03-04T01:49:56;5.90;99.90
70368;DHT22;57789;53.868;10.728;2023-03-04T01:52:22;6.00;99.90
70368;DHT22;57789;53.868;10.728;2023-03-04T01:54:48;6.00;99.90
70368;DHT22;57789;53.868;10.728;2023-03-04T01:57:20;5.90;99.90
70368;DHT22;57789;53.868;10.728;2023-03-04T01:59:47;5.90;99.90
70368;DHT22;57789;53.868;10.728;2023-03-04T02:02:32;5.90;99.90
70368;DHT22;57789;53.868;10.728;2023-03-04T02:04:58;5.90;99.90
70368;DHT22;57789;53.868;10.728;2023-03-04T02:07:23;6.00;99.90
70368;DHT22;57789;53.868;10.728;2023-03-04T02:09:49;5.90;99.90
70368;DHT22;57789;53.868;10.728;2023-03-04T02:12:15;5.90;99.90
70368;DHT22;57789;53.868;10.728;2023-03-04T02:14:40;5.90;99.90
70368;DHT22;57789;53.868;10.728;2023-03-04T02:17:11;5.90;99.90
70368;DHT22;57789;53.868;10.728;2023-03-04T02:19:46;6.00;99.90
70368;DHT22;57789;53.868;10.728;2023-03-04T02:22:14;6.00;99.90
70368;DHT22;57789;53.868;10.728;2023-03-04T02:24:49;6.00;99.90
70368;DHT22;57789;53.868;10.728;2023-03-04T02:27:17;6.00;99.90
70368;DHT22;57789;53.868;10.728;2023-03-04T02:29:43;6.00;99.90
70368;DHT22;57789;53.868;10.728;2023-03-04T02:32:11;6.00;99.90
70368;DHT22;57789;53.868;10.728;2023-03-04T02:34:43;6.00;99.90
70368;DHT22;57789;53.868;10.728;2023-03-04T02:37:10;6.00;99.90
70368;DHT22;57789;53.868;10.728;2023-03-04T02:39:42;6.00;99.90
70368;DHT22;57789;53.868;10.728;2023-03-04T02:42:08;5.90;99.90
70368;DHT22;57789;53.868;10.728;2023-03-04T02:44:41;5.90;99.90
70368;DHT22;57789;53.868;10.728;2023-03-04T02:47:10;5.80;99.90
70368;DHT22;57789;53.868;10.728;2023-03-04T02:49:40;5.80;99.90
70368;DHT22;57789;53.868;10.728;2023-03-04T02:52:08;5.80;99.90
70368;DHT22;57789;53.868;10.728;2023-03-04T02:54:36;5.80;99.90
70368;DHT22;57789;53.868;10.728;2023-03-04T02:57:05;5.80;99.90
70368;DHT22;57789;53.868;10.728;2023-03-04T02:59:31;5.80;99.90
70368;DHT22;57789;53.868;10.728;2023-03-04T03:01:57;5.80;99.90
70368;DHT22;57789;53.868;10.728;2023-03-04T03:04:23;5.80;99.90
70368;DHT22;57789;53.868;10.728;2023-03-04T03:06:50;5.80;99.90
70368;DHT22;57789;53.868;10.728;2023-03-04T03:09:16;5.90;99.90
70368;DHT22;57789;53.868;10.728;2023-03-04T03:11:42;5.90;99.90
70368;DHT22;57789;53.868;10.728;2023-03-04T03:14:07;5.90;99.90
70368;DHT22;57789;53.868;10.728;2023-03-04T03:16:33;5.90;99.90
70368;DHT22;57789;53.868;10.728;2023-03-04T03:18:59;5.90;99.90
70368;DHT22;57789;53.868;10.728;2023-03-04T03:21:25;6.00;99.90
70368;DHT22;57789;53.868;10.728;2023-03-04T03:23:51;6.00;99.90
70368;DHT22;57789;53.868;10.728;2023-03-04T03:26:17;6.00;99.90
70368;DHT22;57789;53.868;10.728;2023-03-04T03:28:43;6.00;99.90
70368;DHT22;57789;53.868;10.728;2023-03-04T03:31:09;5.90;99.90
70368;DHT22;57789;53.868;10.728;2023-03-04T03:33:34;5.90;99.90
70368;DHT22;57789;53.868;10.728;2023-03-04T03:36:00;6.00;99.90
70368;DHT22;57789;53.868;10.728;2023-03-04T03:38:26;5.90;99.90
70368;DHT22;57789;53.868;10.728;2023-03-04T03:40:52;6.00;99.90
70368;DHT22;57789;53.868;10.728;2023-03-04T03:43:18;5.90;99.90
70368;DHT22;57789;53.868;10.728;2023-03-04T03:45:43;5.90;99.90
70368;DHT22;57789;53.868;10.728;2023-03-04T03:48:09;5.90;99.90
70368;DHT22;57789;53.868;10.728;2023-03-04T03:50:35;6.00;99.90
70368;DHT22;57789;53.868;10.728;2023-03-04T03:53:00;6.00;99.90
70368;DHT22;57789;53.868;10.728;2023-03-04T03:55:26;6.00;99.90
70368;DHT22;57789;53.868;10.728;2023-03-04T03:57:52;6.00;99.90
70368;DHT22;57789;53.868;10.728;2023-03-04T04:00:18;6.00;99.90
70368;DHT22;57789;53.868;10.728;2023-03-04T04:02:44;6.00;99.90
70368;DHT22;57789;53.868;10.728;2023-03-04T04:05:10;6.00;99.90
70368;DHT22;57789;53.868;10.728;2023-03-04T04:07:37;6.00;99.90
70368;DHT22;57789;53.868;10.728;2023-03-04T04:10:04;6.00;99.90
70368;DHT22;57789;53.868;10.728;2023-03-04T04:12:30;6.00;99.90
70368;DHT22;57789;53.868;10.728;2023-03-04T04:14:55;6.00;99.90
70368;DHT22;57789;53.868;10.728;2023-03-04T04:17:21;6.00;99.90
70368;DHT22;57789;53.868;10.728;2023-03-04T04:19:47;6.10;99.90
70368;DHT22;57789;53.868;10.728;2023-03-04T04:22:16;6.10;99.90
70368;DHT22;57789;53.868;10.728;2023-03-04T04:24:41;6.10;99.90
70368;DHT22;57789;53.868;10.728;2023-03-04T04:27:07;6.10;99.90
70368;DHT22;57789;53.868;10.728;2023-03-04T04:29:33;6.00;99.90
70368;DHT22;57789;53.868;10.728;2023-03-04T04:31:59;6.00;99.90
70368;DHT22;57789;53.868;10.728;2023-03-04T04:34:24;6.00;99.90
70368;DHT22;57789;53.868;10.728;2023-03-04T04:36:50;6.00;99.90
70368;DHT22;57789;53.868;10.728;2023-03-04T04:39:16;6.00;99.90
70368;DHT22;57789;53.868;10.728;2023-03-04T04:41:43;5.90;99.90
70368;DHT22;57789;53.868;10.728;2023-03-04T04:44:10;6.00;99.90
70368;DHT22;57789;53.868;10.728;2023-03-04T04:46:36;5.90;99.90
70368;DHT22;57789;53.868;10.728;2023-03-04T04:49:02;5.90;99.90
70368;DHT22;57789;53.868;10.728;2023-03-04T04:51:28;5.90;99.90
70368;DHT22;57789;53.868;10.728;2023-03-04T04:53:54;5.90;99.90
70368;DHT22;57789;53.868;10.728;2023-03-04T04:56:23;5.90;99.90
70368;DHT22;57789;53.868;10.728;2023-03-04T04:58:55;5.90;99.90
70368;DHT22;57789;53.868;10.728;2023-03-04T05:01:22;5.90;99.90
70368;DHT22;57789;53.868;10.728;2023-03-04T05:03:48;5.90;99.90
70368;DHT22;57789;53.868;10.728;2023-03-04T05:06:21;5.90;99.90
70368;DHT22;57789;53.868;10.728;2023-03-04T05:08:47;5.90;99.90
70368;DHT22;57789;53.868;10.728;2023-03-04T05:11:13;5.90;99.90
70368;DHT22;57789;53.868;10.728;2023-03-04T05:13:39;5.80;99.90
70368;DHT22;57789;53.868;10.728;2023-03-04T05:16:05;5.80;99.90
70368;DHT22;57789;53.868;10.728;2023-03-04T05:18:31;5.80;99.90
70368;DHT22;57789;53.868;10.728;2023-03-04T05:20:59;5.80;99.90
70368;DHT22;57789;53.868;10.728;2023-03-04T05:23:26;5.80;99.90
70368;DHT22;57789;53.868;10.728;2023-03-04T05:25:52;5.80;99.90
70368;DHT22;57789;53.868;10.728;2023-03-04T05:28:18;5.80;99.90
70368;DHT22;57789;53.868;10.728;2023-03-04T05:30:45;5.80;99.90
70368;DHT22;57789;53.868;10.728;2023-03-04T05:33:13;5.80;99.90
70368;DHT22;57789;53.868;10.728;2023-03-04T05:35:41;5.80;99.90
70368;DHT22;57789;53.868;10.728;2023-03-04T05:38:10;5.70;99.90
70368;DHT22;57789;53.868;10.728;2023-03-04T05:40:37;5.70;99.90
70368;DHT22;57789;53.868;10.728;2023-03-04T05:43:04;5.70;99.90
70368;DHT22;57789;53.868;10.728;2023-03-04T05:45:29;5.70;99.90
70368;DHT22;57789;53.868;10.728;2023-03-04T05:47:55;5.60;99.90
70368;DHT22;57789;53.868;10.728;2023-03-04T05:50:22;5.60;99.90
70368;DHT22;57789;53.868;10.728;2023-03-04T05:52:48;5.60;99.90
70368;DHT22;57789;53.868;10.728;2023-03-04T05:55:15;5.60;99.90
70368;DHT22;57789;53.868;10.728;2023-03-04T05:57:41;5.60;99.90
70368;DHT22;57789;53.868;10.728;2023-03-04T06:00:08;5.60;99.90
70368;DHT22;57789;53.868;10.728;2023-03-04T06:02:35;5.50;99.90
70368;DHT22;57789;53.868;10.728;2023-03-04T06:05:01;5.50;99.90
70368;DHT22;57789;53.868;10.728;2023-03-04T06:07:27;5.50;99.90
70368;DHT22;57789;53.868;10.728;2023-03-04T06:09:52;5.50;99.90
70368;DHT22;57789;53.868;10.728;2023-03-04T06:12:18;5.50;99.90
70368;DHT22;57789;53.868;10.728;2023-03-04T06:14:44;5.50;99.90
70368;DHT22;57789;53.868;10.728;2023-03-04T06:17:09;5.50;99.90
70368;DHT22;57789;53.868;10.728;2023-03-04T06:19:35;5.50;99.90
70368;DHT22;57789;53.868;10.728;2023-03-04T06:22:03;5.40;99.90
70368;DHT22;57789;53.868;10.728;2023-03-04T06:24:29;5.40;99.90
70368;DHT22;57789;53.868;10.728;2023-03-04T06:26:54;5.40;99.90
70368;DHT22;57789;53.868;10.728;2023-03-04T06:29:20;5.40;99.90
70368;DHT22;57789;53.868;10.728;2023-03-04T06:31:46;5.30;99.90
70368;DHT22;57789;53.868;10.728;2023-03-04T06:34:12;5.30;99.90
70368;DHT22;57789;53.868;10.728;2023-03-04T06:36:37;5.40;99.90
70368;DHT22;57789;53.868;10.728;2023-03-04T06:39:04;5.30;99.90
70368;DHT22;57789;53.868;10.728;2023-03-04T06:41:30;5.30;99.90
70368;DHT22;57789;53.868;10.728;2023-03-04T06:43:56;5.30;99.90
70368;DHT22;57789;53.868;10.728;2023-03-04T06:46:21;5.20;99.90
70368;DHT22;57789;53.868;10.728;2023-03-04T06:48:47;5.20;99.90
70368;DHT22;57789;53.868;10.728;2023-03-04T06:51:13;5.20;99.90
70368;DHT22;57789;53.868;10.728;2023-03-04T06:53:39;5.30;99.90
70368;DHT22;57789;53.868;10.728;2023-03-04T06:56:07;5.20;99.90
70368;DHT22;57789;53.868;10.728;2023-03-04T06:58:32;5.30;99.90
70368;DHT22;57789;53.868;10.728;2023-03-04T07:01:09;5.30;99.90
70368;DHT22;57789;53.868;10.728;2023-03-04T07:03:35;5.30;99.90
70368;DHT22;57789;53.868;10.728;2023-03-04T07:06:01;5.30;99.90
70368;DHT22;57789;53.868;10.728;2023-03-04T07:08:27;5.30;99.90
70368;DHT22;57789;53.868;10.728;2023-03-04T07:10:53;5.30;99.90
70368;DHT22;57789;53.868;10.728;2023-03-04T07:13:18;5.30;99.90
70368;DHT22;57789;53.868;10.728;2023-03-04T07:15:44;5.40;99.90
70368;DHT22;57789;53.868;10.728;2023-03-04T07:18:10;5.40;99.90
70368;DHT22;57789;53.868;10.728;2023-03-04T07:20:35;5.30;99.90
70368;DHT22;57789;53.868;10.728;2023-03-04T07:23:01;5.30;99.90
70368;DHT22;57789;53.868;10.728;2023-03-04T07:25:27;5.30;99.90
70368;DHT22;57789;53.868;10.728;2023-03-04T07:27:53;5.30;99.90
70368;DHT22;57789;53.868;10.728;2023-03-04T07:30:18;5.30;99.90
70368;DHT22;57789;53.868;10.728;2023-03-04T07:32:44;5.30;99.90
70368;DHT22;57789;53.868;10.728;2023-03-04T07:35:09;5.40;99.90
70368;DHT22;57789;53.868;10.728;2023-03-04T07:37:35;5.40;99.90
70368;DHT22;57789;53.868;10.728;2023-03-04T07:40:01;5.40;99.90
70368;DHT22;57789;53.868;10.728;2023-03-04T07:42:27;5.60;99.90
70368;DHT22;57789;53.868;10.728;2023-03-04T07:44:52;5.60;99.90
70368;DHT22;57789;53.868;10.728;2023-03-04T07:47:19;5.50;99.90
70368;DHT22;57789;53.868;10.728;2023-03-04T07:49:45;5.50;99.90
70368;DHT22;57789;53.868;10.728;2023-03-04T07:52:11;5.60;99.90
70368;DHT22;57789;53.868;10.728;2023-03-04T07:54:38;5.60;99.90
70368;DHT22;57789;53.868;10.728;2023-03-04T07:57:04;5.60;99.90
70368;DHT22;57789;53.868;10.728;2023-03-04T07:59:30;5.60;99.90
70368;DHT22;57789;53.868;10.728;2023-03-04T08:01:56;5.50;99.90
70368;DHT22;57789;53.868;10.728;2023-03-04T08:04:22;5.60;99.90
70368;DHT22;57789;53.868;10.728;2023-03-04T08:06:47;5.50;99.90
70368;DHT22;57789;53.868;10.728;2023-03-04T08:09:13;5.60;99.90
70368;DHT22;57789;53.868;10.728;2023-03-04T08:11:39;5.70;99.90
70368;DHT22;57789;53.868;10.728;2023-03-04T08:14:05;5.70;99.90
70368;DHT22;57789;53.868;10.728;2023-03-04T08:16:31;5.70;99.90
70368;DHT22;57789;53.868;10.728;2023-03-04T08:18:59;5.90;99.90
70368;DHT22;57789;53.868;10.728;2023-03-04T08:21:26;5.90;99.90
70368;DHT22;57789;53.868;10.728;2023-03-04T08:23:53;5.90;99.90
70368;DHT22;57789;53.868;10.728;2023-03-04T08:26:25;5.80;99.90
70368;DHT22;57789;53.868;10.728;2023-03-04T08:28:53;5.80;99.90
70368;DHT22;57789;53.868;10.728;2023-03-04T08:31:19;5.70;99.90
70368;DHT22;57789;53.868;10.728;2023-03-04T08:33:45;5.70;99.90
70368;DHT22;57789;53.868;10.728;2023-03-04T08:36:12;5.70;99.90
70368;DHT22;57789;53.868;10.728;2023-03-04T08:38:38;5.60;99.90
70368;DHT22;57789;53.868;10.728;2023-03-04T08:41:04;5.60;99.90
70368;DHT22;57789;53.868;10.728;2023-03-04T08:43:30;5.70;99.90
70368;DHT22;57789;53.868;10.728;2023-03-04T08:45:56;5.60;99.90
70368;DHT22;57789;53.868;10.728;2023-03-04T08:48:22;5.60;99.90
70368;DHT22;57789;53.868;10.728;2023-03-04T08:50:48;5.70;99.90
70368;DHT22;57789;53.868;10.728;2023-03-04T08:53:15;5.80;99.90
70368;DHT22;57789;53.868;10.728;2023-03-04T08:55:42;5.90;99.90
70368;DHT22;57789;53.868;10.728;2023-03-04T08:58:09;5.90;99.90
70368;DHT22;57789;53.868;10.728;2023-03-04T09:00:37;6.00;99.90
70368;DHT22;57789;53.868;10.728;2023-03-04T09:03:03;6.00;99.90
70368;DHT22;57789;53.868;10.728;2023-03-04T09:05:30;6.10;99.90
70368;DHT22;57789;53.868;10.728;2023-03-04T09:07:56;6.10;99.90
70368;DHT22;57789;53.868;10.728;2023-03-04T09:10:22;6.00;99.90
70368;DHT22;57789;53.868;10.728;2023-03-04T09:12:48;5.90;99.90
70368;DHT22;57789;53.868;10.728;2023-03-04T09:15:14;5.90;99.90
70368;DHT22;57789;53.868;10.728;2023-03-04T09:17:40;5.80;99.90
70368;DHT22;57789;53.868;10.728;2023-03-04T09:20:07;5.90;99.90
70368;DHT22;57789;53.868;10.728;2023-03-04T09:22:35;6.00;99.90
70368;DHT22;57789;53.868;10.728;2023-03-04T09:25:01;6.10;99.90
70368;DHT22;57789;53.868;10.728;2023-03-04T09:27:27;6.10;99.90
70368;DHT22;57789;53.868;10.728;2023-03-04T09:29:52;6.10;99.90
70368;DHT22;57789;53.868;10.728;2023-03-04T09:32:18;6.00;99.90
70368;DHT22;57789;53.868;10.728;2023-03-04T09:34:44;6.00;99.90
70368;DHT22;57789;53.868;10.728;2023-03-04T09:37:10;5.90;99.90
70368;DHT22;57789;53.868;10.728;2023-03-04T09:39:36;5.90;99.90
70368;DHT22;57789;53.868;10.728;2023-03-04T09:42:01;6.00;99.90
70368;DHT22;57789;53.868;10.728;2023-03-04T09:44:33;5.90;99.90
70368;DHT22;57789;53.868;10.728;2023-03-04T09:47:09;6.00;99.90
70368;DHT22;57789;53.868;10.728;2023-03-04T09:49:38;6.20;99.90
70368;DHT22;57789;53.868;10.728;2023-03-04T09:52:34;6.30;99.90
70368;DHT22;57789;53.868;10.728;2023-03-04T09:55:14;6.30;99.90
70368;DHT22;57789;53.868;10.728;2023-03-04T10:00:29;6.40;99.90
70368;DHT22;57789;53.868;10.728;2023-03-04T10:03:04;6.40;99.90
70368;DHT22;57789;53.868;10.728;2023-03-04T10:05:34;6.20;99.90
70368;DHT22;57789;53.868;10.728;2023-03-04T10:08:26;6.10;99.90
70368;DHT22;57789;53.868;10.728;2023-03-04T10:10:57;6.20;99.90
70368;DHT22;57789;53.868;10.728;2023-03-04T10:14:02;6.30;99.90
70368;DHT22;57789;53.868;10.728;2023-03-04T10:16:44;6.40;99.90
70368;DHT22;57789;53.868;10.728;2023-03-04T10:21:44;6.70;99.90
70368;DHT22;57789;53.868;10.728;2023-03-04T10:24:12;6.80;99.90
70368;DHT22;57789;53.868;10.728;2023-03-04T10:26:41;6.90;99.90
70368;DHT22;57789;53.868;10.728;2023-03-04T10:29:16;6.90;99.90
70368;DHT22;57789;53.868;10.728;2023-03-04T10:31:43;6.70;99.90
70368;DHT22;57789;53.868;10.728;2023-03-04T10:34:13;6.50;99.90
70368;DHT22;57789;53.868;10.728;2023-03-04T10:37:01;6.40;99.90
70368;DHT22;57789;53.868;10.728;2023-03-04T10:39:38;6.50;99.90
70368;DHT22;57789;53.868;10.728;2023-03-04T10:44:42;6.60;99.90
70368;DHT22;57789;53.868;10.728;2023-03-04T10:47:10;6.60;99.90
70368;DHT22;57789;53.868;10.728;2023-03-04T10:49:53;6.50;99.90
70368;DHT22;57789;53.868;10.728;2023-03-04T10:52:38;6.60;99.90
70368;DHT22;57789;53.868;10.728;2023-03-04T10:55:16;6.50;99.90
70368;DHT22;57789;53.868;10.728;2023-03-04T10:57:44;6.40;99.90
70368;DHT22;57789;53.868;10.728;2023-03-04T11:02:44;6.60;99.90
70368;DHT22;57789;53.868;10.728;2023-03-04T11:05:24;6.50;99.90
70368;DHT22;57789;53.868;10.728;2023-03-04T11:07:54;6.50;99.90
70368;DHT22;57789;53.868;10.728;2023-03-04T11:10:29;6.60;99.90
70368;DHT22;57789;53.868;10.728;2023-03-04T11:13:15;6.90;99.90
70368;DHT22;57789;53.868;10.728;2023-03-04T11:16:04;6.90;99.90
70368;DHT22;57789;53.868;10.728;2023-03-04T11:18:50;6.80;99.90
70368;DHT22;57789;53.868;10.728;2023-03-04T11:21:20;6.80;99.90
70368;DHT22;57789;53.868;10.728;2023-03-04T11:26:15;6.90;99.90
70368;DHT22;57789;53.868;10.728;2023-03-04T11:31:23;7.20;99.90
70368;DHT22;57789;53.868;10.728;2023-03-04T11:34:13;7.40;99.90
70368;DHT22;57789;53.868;10.728;2023-03-04T11:36:53;7.40;99.90
70368;DHT22;57789;53.868;10.728;2023-03-04T11:39:29;7.50;99.90
70368;DHT22;57789;53.868;10.728;2023-03-04T11:44:51;7.30;99.90
70368;DHT22;57789;53.868;10.728;2023-03-04T11:47:20;7.00;99.90
70368;DHT22;57789;53.868;10.728;2023-03-04T12:00:33;6.60;99.90
70368;DHT22;57789;53.868;10.728;2023-03-04T12:19:05;6.70;99.90
70368;DHT22;57789;53.868;10.728;2023-03-04T12:39:34;6.70;99.90
70368;DHT22;57789;53.868;10.728;2023-03-04T12:44:36;6.80;99.90
70368;DHT22;57789;53.868;10.728;2023-03-04T12:52:48;6.60;99.90
70368;DHT22;57789;53.868;10.728;2023-03-04T12:55:13;6.50;99.90
70368;DHT22;57789;53.868;10.728;2023-03-04T12:57:40;6.60;99.90
70368;DHT22;57789;53.868;10.728;2023-03-04T13:00:16;6.50;99.90
70368;DHT22;57789;53.868;10.728;2023-03-04T13:10:45;7.00;99.90
70368;DHT22;57789;53.868;10.728;2023-03-04T13:13:39;6.90;99.90
70368;DHT22;57789;53.868;10.728;2023-03-04T13:18:38;6.70;99.90
70368;DHT22;57789;53.868;10.728;2023-03-04T13:23:44;6.60;99.90
70368;DHT22;57789;53.868;10.728;2023-03-04T13:26:20;6.50;99.90
70368;DHT22;57789;53.868;10.728;2023-03-04T13:37:35;6.80;99.90
70368;DHT22;57789;53.868;10.728;2023-03-04T13:42:46;7.00;99.90
70368;DHT22;57789;53.868;10.728;2023-03-04T13:45:32;6.90;99.90
70368;DHT22;57789;53.868;10.728;2023-03-04T13:47:58;6.90;99.90
70368;DHT22;57789;53.868;10.728;2023-03-04T13:50:32;7.00;99.90
70368;DHT22;57789;53.868;10.728;2023-03-04T13:58:34;7.30;99.90
70368;DHT22;57789;53.868;10.728;2023-03-04T14:01:00;7.70;99.90
70368;DHT22;57789;53.868;10.728;2023-03-04T14:03:30;7.60;99.90
70368;DHT22;57789;53.868;10.728;2023-03-04T14:08:49;7.90;99.90
70368;DHT22;57789;53.868;10.728;2023-03-04T14:13:56;8.40;99.90
70368;DHT22;57789;53.868;10.728;2023-03-04T14:16:27;8.30;99.90
70368;DHT22;57789;53.868;10.728;2023-03-04T14:19:02;8.40;99.90
70368;DHT22;57789;53.868;10.728;2023-03-04T14:21:29;8.50;99.90
70368;DHT22;57789;53.868;10.728;2023-03-04T14:24:12;8.40;99.90
70368;DHT22;57789;53.868;10.728;2023-03-04T14:26:38;8.10;99.90
70368;DHT22;57789;53.868;10.728;2023-03-04T14:29:27;8.00;99.90
70368;DHT22;57789;53.868;10.728;2023-03-04T14:31:57;7.80;99.90
70368;DHT22;57789;53.868;10.728;2023-03-04T14:34:30;7.70;99.90
70368;DHT22;57789;53.868;10.728;2023-03-04T14:36:58;7.50;99.90
70368;DHT22;57789;53.868;10.728;2023-03-04T14:39:26;7.40;99.90
70368;DHT22;57789;53.868;10.728;2023-03-04T14:41:54;7.30;99.90
70368;DHT22;57789;53.868;10.728;2023-03-04T14:47:08;7.30;99.90
70368;DHT22;57789;53.868;10.728;2023-03-04T14:49:37;7.20;99.90
70368;DHT22;57789;53.868;10.728;2023-03-04T14:52:04;7.40;99.90
70368;DHT22;57789;53.868;10.728;2023-03-04T14:56:59;7.70;99.90
70368;DHT22;57789;53.868;10.728;2023-03-04T14:59:34;8.00;99.90
70368;DHT22;57789;53.868;10.728;2023-03-04T15:04:48;8.50;99.90
70368;DHT22;57789;53.868;10.728;2023-03-04T15:07:21;8.60;99.90
70368;DHT22;57789;53.868;10.728;2023-03-04T15:09:52;8.30;99.90
70368;DHT22;57789;53.868;10.728;2023-03-04T15:12:30;8.00;99.90
70368;DHT22;57789;53.868;10.728;2023-03-04T15:14:58;7.60;99.90
70368;DHT22;57789;53.868;10.728;2023-03-04T15:17:29;7.40;99.90
70368;DHT22;57789;53.868;10.728;2023-03-04T15:20:25;7.30;99.90
70368;DHT22;57789;53.868;10.728;2023-03-04T15:25:14;7.20;99.90
70368;DHT22;57789;53.868;10.728;2023-03-04T15:27:41;7.30;99.90
70368;DHT22;57789;53.868;10.728;2023-03-04T15:30:29;7.20;99.90
70368;DHT22;57789;53.868;10.728;2023-03-04T15:32:56;7.10;99.90
70368;DHT22;57789;53.868;10.728;2023-03-04T15:35:24;6.80;99.90
70368;DHT22;57789;53.868;10.728;2023-03-04T15:37:51;6.60;99.90
70368;DHT22;57789;53.868;10.728;2023-03-04T15:40:34;6.50;99.90
70368;DHT22;57789;53.868;10.728;2023-03-04T15:43:04;6.40;99.90
70368;DHT22;57789;53.868;10.728;2023-03-04T15:45:35;6.50;99.90
70368;DHT22;57789;53.868;10.728;2023-03-04T15:48:03;6.50;99.90
70368;DHT22;57789;53.868;10.728;2023-03-04T15:50:54;6.40;99.90
70368;DHT22;57789;53.868;10.728;2023-03-04T15:55:50;6.40;99.90
70368;DHT22;57789;53.868;10.728;2023-03-04T15:58:16;6.50;99.90
70368;DHT22;57789;53.868;10.728;2023-03-04T16:00:42;6.50;99.90
70368;DHT22;57789;53.868;10.728;2023-03-04T16:03:15;6.60;99.90
70368;DHT22;57789;53.868;10.728;2023-03-04T16:05:45;6.70;99.90
70368;DHT22;57789;53.868;10.728;2023-03-04T16:08:16;6.70;99.90
70368;DHT22;57789;53.868;10.728;2023-03-04T16:10:43;6.50;99.90
70368;DHT22;57789;53.868;10.728;2023-03-04T16:13:14;6.40;99.90
70368;DHT22;57789;53.868;10.728;2023-03-04T16:15:40;6.50;99.90
70368;DHT22;57789;53.868;10.728;2023-03-04T16:18:10;6.40;99.90
70368;DHT22;57789;53.868;10.728;2023-03-04T16:20:37;6.30;99.90
70368;DHT22;57789;53.868;10.728;2023-03-04T16:23:04;6.40;99.90
70368;DHT22;57789;53.868;10.728;2023-03-04T16:25:30;6.40;99.90
70368;DHT22;57789;53.868;10.728;2023-03-04T16:27:56;6.40;99.90
70368;DHT22;57789;53.868;10.728;2023-03-04T16:30:25;6.40;99.90
70368;DHT22;57789;53.868;10.728;2023-03-04T16:32:51;6.40;99.90
70368;DHT22;57789;53.868;10.728;2023-03-04T16:35:18;6.40;99.90
70368;DHT22;57789;53.868;10.728;2023-03-04T16:37:44;6.40;99.90
70368;DHT22;57789;53.868;10.728;2023-03-04T16:40:14;6.40;99.90
70368;DHT22;57789;53.868;10.728;2023-03-04T16:42:41;6.50;99.90
70368;DHT22;57789;53.868;10.728;2023-03-04T16:45:15;6.60;99.90
70368;DHT22;57789;53.868;10.728;2023-03-04T16:47:41;6.60;99.90
70368;DHT22;57789;53.868;10.728;2023-03-04T16:50:08;6.60;99.90
70368;DHT22;57789;53.868;10.728;2023-03-04T16:52:35;6.70;99.90
70368;DHT22;57789;53.868;10.728;2023-03-04T16:55:01;6.50;99.90
70368;DHT22;57789;53.868;10.728;2023-03-04T16:57:27;6.50;99.90
70368;DHT22;57789;53.868;10.728;2023-03-04T16:59:53;6.50;99.90
70368;DHT22;57789;53.868;10.728;2023-03-04T17:02:21;6.50;99.90
70368;DHT22;57789;53.868;10.728;2023-03-04T17:04:48;6.50;99.90
70368;DHT22;57789;53.868;10.728;2023-03-04T17:07:14;6.40;99.90
70368;DHT22;57789;53.868;10.728;2023-03-04T17:09:41;6.30;99.90
70368;DHT22;57789;53.868;10.728;2023-03-04T17:12:09;6.20;99.90
70368;DHT22;57789;53.868;10.728;2023-03-04T17:14:36;6.10;99.90
70368;DHT22;57789;53.868;10.728;2023-03-04T17:17:03;6.10;99.90
70368;DHT22;57789;53.868;10.728;2023-03-04T17:19:29;6.10;99.90
70368;DHT22;57789;53.868;10.728;2023-03-04T17:21:57;6.10;99.90
70368;DHT22;57789;53.868;10.728;2023-03-04T17:24:23;6.00;99.90
70368;DHT22;57789;53.868;10.728;2023-03-04T17:26:49;6.10;99.90
70368;DHT22;57789;53.868;10.728;2023-03-04T17:29:15;6.10;99.90
70368;DHT22;57789;53.868;10.728;2023-03-04T17:31:40;6.10;99.90
70368;DHT22;57789;53.868;10.728;2023-03-04T17:34:06;6.10;99.90
70368;DHT22;57789;53.868;10.728;2023-03-04T17:36:32;6.10;99.90